sensor_id;sensor_type;location;lat;lon;timestamp;pressure;altitude;pressure_sealevel;temperature;humidity
60874;BME280;46715;40.642;-7.920;2022-09-29T00:00:08;96249.44;;;12.74;82.12
60874;BME280;46715;40.642;-7.920;2022-09-29T00:02:09;96248.81;;;12.82;81.75
60874;BME280;46715;40.642;-7.920;2022-09-29T00:04:10;96250.38;;;12.83;81.60
60874;BME280;46715;40.642;-7.920;2022-09-29T00:06:14;96241.97;;;12.86;80.80
60874;BME280;46715;40.642;-7.920;2022-09-29T00:08:16;96238.94;;;12.98;79.94
60874;BME280;46715;40.642;-7.920;2022-09-29T00:10:18;96228.94;;;13.00;78.81
60874;BME280;46715;40.642;-7.920;2022-09-29T00:12:18;96228.03;;;13.10;78.58
60874;BME280;46715;40.642;-7.920;2022-09-29T00:14:20;96230.59;;;13.15;77.96
60874;BME280;46715;40.642;-7.920;2022-09-29T00:16:21;96225.06;;;13.17;78.10
60874;BME280;46715;40.642;-7.920;2022-09-29T00:18:22;96226.69;;;13.32;77.38
60874;BME280;46715;40.642;-7.920;2022-09-29T00:20:23;96233.06;;;13.44;76.21
60874;BME280;46715;40.642;-7.920;2022-09-29T00:22:23;96231.72;;;13.47;75.73
60874;BME280;46715;40.642;-7.920;2022-09-29T00:24:24;96221.38;;;13.37;76.30
60874;BME280;46715;40.642;-7.920;2022-09-29T00:26:25;96217.25;;;13.30;77.04
60874;BME280;46715;40.642;-7.920;2022-09-29T00:28:26;96211.63;;;13.23;77.63
60874;BME280;46715;40.642;-7.920;2022-09-29T00:30:28;96216.34;;;13.21;78.34
60874;BME280;46715;40.642;-7.920;2022-09-29T00:32:29;96216.16;;;13.18;78.76
60874;BME280;46715;40.642;-7.920;2022-09-29T00:34:30;96217.44;;;13.20;78.34
60874;BME280;46715;40.642;-7.920;2022-09-29T00:36:30;96214.44;;;13.27;77.54
60874;BME280;46715;40.642;-7.920;2022-09-29T00:38:32;96220.47;;;13.27;77.96
60874;BME280;46715;40.642;-7.920;2022-09-29T00:40:33;96211.25;;;13.30;77.52
60874;BME280;46715;40.642;-7.920;2022-09-29T00:42:35;96207.44;;;13.41;76.23
60874;BME280;46715;40.642;-7.920;2022-09-29T00:44:56;96203.88;;;13.32;76.97
60874;BME280;46715;40.642;-7.920;2022-09-29T00:47:04;96208.00;;;13.19;77.53
60874;BME280;46715;40.642;-7.920;2022-09-29T00:51:33;96192.81;;;13.02;78.44
60874;BME280;46715;40.642;-7.920;2022-09-29T00:53:36;96200.44;;;12.99;79.22
60874;BME280;46715;40.642;-7.920;2022-09-29T00:55:48;96199.41;;;13.00;78.38
60874;BME280;46715;40.642;-7.920;2022-09-29T00:58:02;96191.31;;;12.96;78.53
60874;BME280;46715;40.642;-7.920;2022-09-29T01:00:11;96200.50;;;12.93;78.64
60874;BME280;46715;40.642;-7.920;2022-09-29T01:02:13;96191.66;;;12.89;79.43
60874;BME280;46715;40.642;-7.920;2022-09-29T01:04:17;96187.72;;;12.92;79.30
60874;BME280;46715;40.642;-7.920;2022-09-29T01:06:21;96188.22;;;12.94;78.39
60874;BME280;46715;40.642;-7.920;2022-09-29T01:08:47;96187.13;;;12.95;78.13
60874;BME280;46715;40.642;-7.920;2022-09-29T01:10:52;96190.31;;;12.92;78.90
60874;BME280;46715;40.642;-7.920;2022-09-29T01:12:53;96198.13;;;12.97;78.02
60874;BME280;46715;40.642;-7.920;2022-09-29T01:14:55;96190.84;;;12.94;78.31
60874;BME280;46715;40.642;-7.920;2022-09-29T01:16:56;96191.59;;;12.94;78.34
60874;BME280;46715;40.642;-7.920;2022-09-29T01:19:18;96192.31;;;13.00;78.46
60874;BME280;46715;40.642;-7.920;2022-09-29T01:26:10;96195.63;;;13.06;77.78
60874;BME280;46715;40.642;-7.920;2022-09-29T01:38:30;96183.13;;;13.03;77.62
60874;BME280;46715;40.642;-7.920;2022-09-29T01:40:18;96187.19;;;13.09;77.15
60874;BME280;46715;40.642;-7.920;2022-09-29T01:42:28;96172.88;;;13.06;77.46
60874;BME280;46715;40.642;-7.920;2022-09-29T01:44:41;96184.31;;;13.10;77.37
60874;BME280;46715;40.642;-7.920;2022-09-29T01:46:47;96172.06;;;13.25;76.22
60874;BME280;46715;40.642;-7.920;2022-09-29T01:48:52;96171.53;;;13.23;76.48
60874;BME280;46715;40.642;-7.920;2022-09-29T01:50:56;96168.16;;;13.22;76.70
60874;BME280;46715;40.642;-7.920;2022-09-29T01:53:08;96161.38;;;13.21;77.33
60874;BME280;46715;40.642;-7.920;2022-09-29T01:55:15;96161.47;;;13.16;77.45
60874;BME280;46715;40.642;-7.920;2022-09-29T01:57:41;96168.81;;;13.14;77.56
60874;BME280;46715;40.642;-7.920;2022-09-29T01:59:49;96158.16;;;13.10;78.15
60874;BME280;46715;40.642;-7.920;2022-09-29T02:01:59;96154.44;;;13.11;77.92
60874;BME280;46715;40.642;-7.920;2022-09-29T02:07:10;96150.88;;;13.21;78.03
60874;BME280;46715;40.642;-7.920;2022-09-29T02:09:18;96159.44;;;13.27;77.29
60874;BME280;46715;40.642;-7.920;2022-09-29T02:11:21;96153.72;;;13.25;77.20
60874;BME280;46715;40.642;-7.920;2022-09-29T02:13:23;96143.84;;;13.22;77.69
60874;BME280;46715;40.642;-7.920;2022-09-29T02:15:28;96131.50;;;13.22;77.54
60874;BME280;46715;40.642;-7.920;2022-09-29T02:17:38;96140.72;;;13.20;77.86
60874;BME280;46715;40.642;-7.920;2022-09-29T02:19:41;96130.59;;;13.13;78.08
60874;BME280;46715;40.642;-7.920;2022-09-29T02:21:42;96128.56;;;13.10;78.55
60874;BME280;46715;40.642;-7.920;2022-09-29T02:23:43;96116.91;;;13.02;79.02
60874;BME280;46715;40.642;-7.920;2022-09-29T02:25:46;96111.69;;;13.02;79.85
60874;BME280;46715;40.642;-7.920;2022-09-29T02:27:48;96110.81;;;13.07;79.93
60874;BME280;46715;40.642;-7.920;2022-09-29T02:29:52;96098.31;;;13.04;79.48
60874;BME280;46715;40.642;-7.920;2022-09-29T02:31:54;96099.75;;;13.10;78.84
60874;BME280;46715;40.642;-7.920;2022-09-29T02:33:56;96089.66;;;13.03;79.13
60874;BME280;46715;40.642;-7.920;2022-09-29T02:39:05;96091.50;;;13.03;79.43
60874;BME280;46715;40.642;-7.920;2022-09-29T02:40:48;96090.16;;;13.05;80.03
60874;BME280;46715;40.642;-7.920;2022-09-29T02:50:30;96089.47;;;13.33;78.15
60874;BME280;46715;40.642;-7.920;2022-09-29T02:52:49;96088.13;;;13.49;77.03
60874;BME280;46715;40.642;-7.920;2022-09-29T02:55:06;96084.66;;;13.54;77.42
60874;BME280;46715;40.642;-7.920;2022-09-29T02:57:19;96087.06;;;13.50;77.08
60874;BME280;46715;40.642;-7.920;2022-09-29T02:59:29;96094.16;;;13.50;77.98
60874;BME280;46715;40.642;-7.920;2022-09-29T03:01:33;96093.88;;;13.51;77.99
60874;BME280;46715;40.642;-7.920;2022-09-29T03:03:33;96089.50;;;13.46;78.17
60874;BME280;46715;40.642;-7.920;2022-09-29T03:05:34;96082.22;;;13.43;78.62
60874;BME280;46715;40.642;-7.920;2022-09-29T03:07:36;96082.22;;;13.43;78.94
60874;BME280;46715;40.642;-7.920;2022-09-29T03:09:38;96084.06;;;13.43;79.10
60874;BME280;46715;40.642;-7.920;2022-09-29T03:11:39;96088.72;;;13.46;79.24
60874;BME280;46715;40.642;-7.920;2022-09-29T03:13:40;96076.69;;;13.45;79.50
60874;BME280;46715;40.642;-7.920;2022-09-29T03:15:40;96074.34;;;13.43;80.12
60874;BME280;46715;40.642;-7.920;2022-09-29T03:17:41;96073.59;;;13.43;80.31
60874;BME280;46715;40.642;-7.920;2022-09-29T03:19:42;96084.44;;;13.50;80.17
60874;BME280;46715;40.642;-7.920;2022-09-29T03:21:44;96074.56;;;13.47;80.34
60874;BME280;46715;40.642;-7.920;2022-09-29T03:23:44;96062.81;;;13.44;81.03
60874;BME280;46715;40.642;-7.920;2022-09-29T03:25:46;96068.06;;;13.44;80.81
60874;BME280;46715;40.642;-7.920;2022-09-29T03:27:47;96052.03;;;13.46;81.13
60874;BME280;46715;40.642;-7.920;2022-09-29T03:29:49;96050.00;;;13.43;82.10
60874;BME280;46715;40.642;-7.920;2022-09-29T03:31:50;96039.84;;;13.55;81.10
60874;BME280;46715;40.642;-7.920;2022-09-29T03:33:50;96043.13;;;13.47;81.72
60874;BME280;46715;40.642;-7.920;2022-09-29T03:35:51;96042.06;;;13.48;82.69
60874;BME280;46715;40.642;-7.920;2022-09-29T03:37:56;96035.56;;;13.45;82.75
60874;BME280;46715;40.642;-7.920;2022-09-29T03:39:57;96026.44;;;13.43;82.62
60874;BME280;46715;40.642;-7.920;2022-09-29T03:41:58;96015.19;;;13.42;82.81
60874;BME280;46715;40.642;-7.920;2022-09-29T03:43:59;96009.94;;;13.28;82.96
60874;BME280;46715;40.642;-7.920;2022-09-29T03:46:00;96001.56;;;13.26;84.25
60874;BME280;46715;40.642;-7.920;2022-09-29T03:48:01;96006.88;;;13.21;83.92
60874;BME280;46715;40.642;-7.920;2022-09-29T03:50:01;96002.31;;;13.13;84.29
60874;BME280;46715;40.642;-7.920;2022-09-29T03:52:02;95996.22;;;13.04;85.40
60874;BME280;46715;40.642;-7.920;2022-09-29T03:54:03;95998.22;;;12.93;85.78
60874;BME280;46715;40.642;-7.920;2022-09-29T03:56:04;96002.84;;;12.82;86.59
60874;BME280;46715;40.642;-7.920;2022-09-29T03:58:05;95998.78;;;12.76;87.47
60874;BME280;46715;40.642;-7.920;2022-09-29T04:00:07;95994.31;;;12.76;87.74
60874;BME280;46715;40.642;-7.920;2022-09-29T04:02:08;95994.59;;;12.75;87.95
60874;BME280;46715;40.642;-7.920;2022-09-29T04:04:09;95997.81;;;12.72;88.06
60874;BME280;46715;40.642;-7.920;2022-09-29T04:06:10;95994.69;;;12.70;88.78
60874;BME280;46715;40.642;-7.920;2022-09-29T04:08:11;95998.28;;;12.74;88.47
60874;BME280;46715;40.642;-7.920;2022-09-29T04:10:12;96005.00;;;12.80;88.55
60874;BME280;46715;40.642;-7.920;2022-09-29T04:12:12;95993.88;;;12.88;88.29
60874;BME280;46715;40.642;-7.920;2022-09-29T04:14:13;95997.19;;;12.94;88.05
60874;BME280;46715;40.642;-7.920;2022-09-29T04:16:14;95996.22;;;13.04;87.37
60874;BME280;46715;40.642;-7.920;2022-09-29T04:18:14;95992.16;;;13.11;87.07
60874;BME280;46715;40.642;-7.920;2022-09-29T04:20:15;95986.34;;;13.15;86.43
60874;BME280;46715;40.642;-7.920;2022-09-29T04:22:16;95992.06;;;13.17;86.56
60874;BME280;46715;40.642;-7.920;2022-09-29T04:24:18;95984.88;;;13.22;86.15
60874;BME280;46715;40.642;-7.920;2022-09-29T04:26:18;95984.81;;;13.27;85.69
60874;BME280;46715;40.642;-7.920;2022-09-29T04:28:20;95986.63;;;13.27;86.13
60874;BME280;46715;40.642;-7.920;2022-09-29T04:30:21;95977.91;;;13.32;85.56
60874;BME280;46715;40.642;-7.920;2022-09-29T04:32:22;95980.19;;;13.38;85.24
60874;BME280;46715;40.642;-7.920;2022-09-29T04:34:24;95990.06;;;13.41;85.23
60874;BME280;46715;40.642;-7.920;2022-09-29T04:36:24;95981.91;;;13.43;85.09
60874;BME280;46715;40.642;-7.920;2022-09-29T04:38:25;95990.16;;;13.50;83.99
60874;BME280;46715;40.642;-7.920;2022-09-29T04:40:26;95987.34;;;13.46;84.59
60874;BME280;46715;40.642;-7.920;2022-09-29T04:42:27;95999.56;;;13.51;84.07
60874;BME280;46715;40.642;-7.920;2022-09-29T04:44:28;95996.75;;;13.61;84.03
60874;BME280;46715;40.642;-7.920;2022-09-29T04:46:29;95993.34;;;13.61;83.90
60874;BME280;46715;40.642;-7.920;2022-09-29T04:48:30;95997.34;;;13.58;84.19
60874;BME280;46715;40.642;-7.920;2022-09-29T04:50:31;95991.72;;;13.65;83.61
60874;BME280;46715;40.642;-7.920;2022-09-29T04:52:31;95983.47;;;13.58;84.02
60874;BME280;46715;40.642;-7.920;2022-09-29T04:54:33;95978.63;;;13.51;84.30
60874;BME280;46715;40.642;-7.920;2022-09-29T04:56:34;95978.31;;;13.53;84.35
60874;BME280;46715;40.642;-7.920;2022-09-29T04:58:35;95979.22;;;13.48;84.77
60874;BME280;46715;40.642;-7.920;2022-09-29T05:00:35;95975.69;;;13.53;84.09
60874;BME280;46715;40.642;-7.920;2022-09-29T05:02:37;95974.44;;;13.50;84.69
60874;BME280;46715;40.642;-7.920;2022-09-29T05:04:38;95989.84;;;13.52;85.17
60874;BME280;46715;40.642;-7.920;2022-09-29T05:06:39;95986.94;;;13.53;85.48
60874;BME280;46715;40.642;-7.920;2022-09-29T05:08:39;95970.25;;;13.49;85.46
60874;BME280;46715;40.642;-7.920;2022-09-29T05:10:40;95971.81;;;13.50;85.73
60874;BME280;46715;40.642;-7.920;2022-09-29T05:12:46;95965.53;;;13.51;85.76
60874;BME280;46715;40.642;-7.920;2022-09-29T05:14:48;95969.03;;;13.46;85.83
60874;BME280;46715;40.642;-7.920;2022-09-29T05:16:48;95964.84;;;13.45;86.31
60874;BME280;46715;40.642;-7.920;2022-09-29T05:18:49;95969.03;;;13.46;85.99
60874;BME280;46715;40.642;-7.920;2022-09-29T05:20:50;95973.38;;;13.51;86.29
60874;BME280;46715;40.642;-7.920;2022-09-29T05:22:53;95971.72;;;13.55;86.27
60874;BME280;46715;40.642;-7.920;2022-09-29T05:24:53;95963.38;;;13.53;86.53
60874;BME280;46715;40.642;-7.920;2022-09-29T05:26:54;95960.56;;;13.50;86.83
60874;BME280;46715;40.642;-7.920;2022-09-29T05:28:55;95964.25;;;13.49;87.10
60874;BME280;46715;40.642;-7.920;2022-09-29T05:31:00;95949.53;;;13.39;87.75
60874;BME280;46715;40.642;-7.920;2022-09-29T05:33:01;95950.66;;;13.33;87.94
60874;BME280;46715;40.642;-7.920;2022-09-29T05:35:02;95949.97;;;13.27;88.28
60874;BME280;46715;40.642;-7.920;2022-09-29T05:37:03;95946.50;;;13.18;88.95
60874;BME280;46715;40.642;-7.920;2022-09-29T05:39:04;95946.13;;;13.10;89.79
60874;BME280;46715;40.642;-7.920;2022-09-29T05:41:09;95944.63;;;13.04;90.67
60874;BME280;46715;40.642;-7.920;2022-09-29T05:43:11;95935.34;;;12.98;91.08
60874;BME280;46715;40.642;-7.920;2022-09-29T05:45:12;95927.56;;;12.93;92.19
60874;BME280;46715;40.642;-7.920;2022-09-29T05:47:12;95918.53;;;12.85;93.08
60874;BME280;46715;40.642;-7.920;2022-09-29T05:49:13;95917.31;;;12.83;93.61
60874;BME280;46715;40.642;-7.920;2022-09-29T05:51:16;95915.25;;;12.79;94.40
60874;BME280;46715;40.642;-7.920;2022-09-29T05:53:17;95914.28;;;12.75;95.10
60874;BME280;46715;40.642;-7.920;2022-09-29T05:55:18;95908.06;;;12.71;95.56
60874;BME280;46715;40.642;-7.920;2022-09-29T05:57:19;95905.75;;;12.70;96.22
60874;BME280;46715;40.642;-7.920;2022-09-29T05:59:20;95897.13;;;12.69;97.33
60874;BME280;46715;40.642;-7.920;2022-09-29T06:01:23;95900.63;;;12.65;97.99
60874;BME280;46715;40.642;-7.920;2022-09-29T06:03:24;95898.09;;;12.59;99.78
60874;BME280;46715;40.642;-7.920;2022-09-29T06:05:26;95900.19;;;12.57;99.50
60874;BME280;46715;40.642;-7.920;2022-09-29T06:07:27;95894.56;;;12.50;100.00
60874;BME280;46715;40.642;-7.920;2022-09-29T06:09:28;95905.03;;;12.50;100.00
60874;BME280;46715;40.642;-7.920;2022-09-29T06:11:29;95902.13;;;12.52;100.00
60874;BME280;46715;40.642;-7.920;2022-09-29T06:13:35;95894.78;;;12.54;100.00
60874;BME280;46715;40.642;-7.920;2022-09-29T06:15:37;95897.28;;;12.59;100.00
60874;BME280;46715;40.642;-7.920;2022-09-29T06:17:37;95910.09;;;12.60;100.00
60874;BME280;46715;40.642;-7.920;2022-09-29T06:19:38;95895.25;;;12.56;100.00
60874;BME280;46715;40.642;-7.920;2022-09-29T06:21:39;95898.44;;;12.53;100.00
60874;BME280;46715;40.642;-7.920;2022-09-29T06:23:40;95899.03;;;12.50;100.00
60874;BME280;46715;40.642;-7.920;2022-09-29T06:25:41;95904.03;;;12.46;100.00
60874;BME280;46715;40.642;-7.920;2022-09-29T06:27:42;95915.09;;;12.43;100.00
60874;BME280;46715;40.642;-7.920;2022-09-29T06:29:43;95912.53;;;12.38;100.00
60874;BME280;46715;40.642;-7.920;2022-09-29T06:31:43;95901.41;;;12.32;100.00
60874;BME280;46715;40.642;-7.920;2022-09-29T06:33:45;95891.31;;;12.25;100.00
60874;BME280;46715;40.642;-7.920;2022-09-29T06:35:47;95878.34;;;12.20;100.00
60874;BME280;46715;40.642;-7.920;2022-09-29T06:38:06;95869.81;;;12.15;100.00
60874;BME280;46715;40.642;-7.920;2022-09-29T06:40:09;95875.28;;;12.13;100.00
60874;BME280;46715;40.642;-7.920;2022-09-29T06:42:09;95863.59;;;12.10;100.00
60874;BME280;46715;40.642;-7.920;2022-09-29T06:44:11;95869.88;;;12.09;100.00
60874;BME280;46715;40.642;-7.920;2022-09-29T06:46:12;95864.84;;;12.13;100.00
60874;BME280;46715;40.642;-7.920;2022-09-29T06:48:14;95854.88;;;12.15;100.00
60874;BME280;46715;40.642;-7.920;2022-09-29T06:50:14;95854.50;;;12.08;100.00
60874;BME280;46715;40.642;-7.920;2022-09-29T06:52:16;95853.22;;;12.05;100.00
60874;BME280;46715;40.642;-7.920;2022-09-29T06:54:19;95855.31;;;12.03;100.00
60874;BME280;46715;40.642;-7.920;2022-09-29T06:56:20;95860.00;;;12.06;100.00
60874;BME280;46715;40.642;-7.920;2022-09-29T06:58:22;95851.66;;;12.04;100.00
60874;BME280;46715;40.642;-7.920;2022-09-29T07:00:24;95850.31;;;12.07;100.00
60874;BME280;46715;40.642;-7.920;2022-09-29T07:02:24;95844.59;;;12.05;100.00
60874;BME280;46715;40.642;-7.920;2022-09-29T07:04:25;95838.00;;;12.07;100.00
60874;BME280;46715;40.642;-7.920;2022-09-29T07:06:27;95829.63;;;12.10;100.00
60874;BME280;46715;40.642;-7.920;2022-09-29T07:08:28;95833.78;;;12.11;100.00
60874;BME280;46715;40.642;-7.920;2022-09-29T07:10:30;95821.97;;;12.14;100.00
60874;BME280;46715;40.642;-7.920;2022-09-29T07:12:32;95819.84;;;12.16;100.00
60874;BME280;46715;40.642;-7.920;2022-09-29T07:14:33;95809.97;;;12.13;100.00
60874;BME280;46715;40.642;-7.920;2022-09-29T07:16:34;95821.00;;;12.10;100.00
60874;BME280;46715;40.642;-7.920;2022-09-29T07:18:36;95823.31;;;12.11;100.00
60874;BME280;46715;40.642;-7.920;2022-09-29T07:20:38;95806.56;;;12.13;100.00
60874;BME280;46715;40.642;-7.920;2022-09-29T07:22:40;95800.78;;;12.16;100.00
60874;BME280;46715;40.642;-7.920;2022-09-29T07:24:40;95798.44;;;12.14;100.00
60874;BME280;46715;40.642;-7.920;2022-09-29T07:26:42;95804.56;;;12.23;100.00
60874;BME280;46715;40.642;-7.920;2022-09-29T07:28:45;95810.97;;;12.31;100.00
60874;BME280;46715;40.642;-7.920;2022-09-29T07:30:46;95811.84;;;12.40;100.00
60874;BME280;46715;40.642;-7.920;2022-09-29T07:32:47;95803.53;;;12.38;100.00
60874;BME280;46715;40.642;-7.920;2022-09-29T07:34:48;95808.75;;;12.38;100.00
60874;BME280;46715;40.642;-7.920;2022-09-29T07:36:49;95805.28;;;12.43;100.00
60874;BME280;46715;40.642;-7.920;2022-09-29T07:38:50;95803.41;;;12.43;100.00
60874;BME280;46715;40.642;-7.920;2022-09-29T07:40:52;95792.41;;;12.47;100.00
60874;BME280;46715;40.642;-7.920;2022-09-29T07:42:53;95804.00;;;12.54;100.00
60874;BME280;46715;40.642;-7.920;2022-09-29T07:44:54;95792.97;;;12.57;100.00
60874;BME280;46715;40.642;-7.920;2022-09-29T07:46:55;95799.97;;;12.62;100.00
60874;BME280;46715;40.642;-7.920;2022-09-29T07:48:56;95785.03;;;12.62;100.00
60874;BME280;46715;40.642;-7.920;2022-09-29T07:51:15;95788.13;;;12.78;100.00
60874;BME280;46715;40.642;-7.920;2022-09-29T07:53:16;95786.56;;;12.77;100.00
60874;BME280;46715;40.642;-7.920;2022-09-29T07:55:17;95772.44;;;12.78;100.00
60874;BME280;46715;40.642;-7.920;2022-09-29T07:57:20;95785.31;;;12.75;100.00
60874;BME280;46715;40.642;-7.920;2022-09-29T07:59:21;95784.25;;;12.76;100.00
60874;BME280;46715;40.642;-7.920;2022-09-29T08:01:22;95782.41;;;12.76;100.00
60874;BME280;46715;40.642;-7.920;2022-09-29T08:03:23;95787.72;;;12.71;100.00
60874;BME280;46715;40.642;-7.920;2022-09-29T08:05:25;95770.69;;;12.74;100.00
60874;BME280;46715;40.642;-7.920;2022-09-29T08:07:27;95767.00;;;12.75;100.00
60874;BME280;46715;40.642;-7.920;2022-09-29T08:09:28;95766.72;;;12.76;100.00
60874;BME280;46715;40.642;-7.920;2022-09-29T08:11:29;95753.63;;;12.76;100.00
60874;BME280;46715;40.642;-7.920;2022-09-29T08:13:30;95756.44;;;12.80;100.00
60874;BME280;46715;40.642;-7.920;2022-09-29T08:15:32;95751.78;;;12.77;100.00
60874;BME280;46715;40.642;-7.920;2022-09-29T08:17:35;95752.56;;;12.77;100.00
60874;BME280;46715;40.642;-7.920;2022-09-29T08:19:37;95757.22;;;12.81;100.00
60874;BME280;46715;40.642;-7.920;2022-09-29T08:21:38;95754.97;;;12.88;100.00
60874;BME280;46715;40.642;-7.920;2022-09-29T08:23:41;95749.84;;;12.83;100.00
60874;BME280;46715;40.642;-7.920;2022-09-29T08:25:42;95754.13;;;12.78;100.00
60874;BME280;46715;40.642;-7.920;2022-09-29T08:27:44;95743.16;;;12.76;100.00
60874;BME280;46715;40.642;-7.920;2022-09-29T08:29:45;95743.16;;;12.76;100.00
60874;BME280;46715;40.642;-7.920;2022-09-29T08:31:46;95747.03;;;12.79;100.00
60874;BME280;46715;40.642;-7.920;2022-09-29T08:33:49;95736.19;;;12.86;100.00
60874;BME280;46715;40.642;-7.920;2022-09-29T08:35:59;95732.38;;;12.92;100.00
60874;BME280;46715;40.642;-7.920;2022-09-29T08:38:00;95733.72;;;12.89;100.00
60874;BME280;46715;40.642;-7.920;2022-09-29T08:40:00;95726.47;;;12.86;100.00
60874;BME280;46715;40.642;-7.920;2022-09-29T08:42:10;95729.00;;;12.91;100.00
60874;BME280;46715;40.642;-7.920;2022-09-29T08:44:21;95724.13;;;12.99;100.00
60874;BME280;46715;40.642;-7.920;2022-09-29T08:46:32;95721.81;;;12.97;100.00
60874;BME280;46715;40.642;-7.920;2022-09-29T08:48:38;95711.75;;;13.13;100.00
60874;BME280;46715;40.642;-7.920;2022-09-29T08:50:51;95707.66;;;13.21;100.00
60874;BME280;46715;40.642;-7.920;2022-09-29T08:53:00;95709.88;;;13.27;100.00
60874;BME280;46715;40.642;-7.920;2022-09-29T08:57:18;95708.13;;;13.23;100.00
60874;BME280;46715;40.642;-7.920;2022-09-29T08:59:19;95708.03;;;13.28;100.00
60874;BME280;46715;40.642;-7.920;2022-09-29T09:01:33;95718.31;;;13.38;100.00
60874;BME280;46715;40.642;-7.920;2022-09-29T09:10:45;95746.34;;;13.60;100.00
60874;BME280;46715;40.642;-7.920;2022-09-29T09:13:23;95746.91;;;13.57;100.00
60874;BME280;46715;40.642;-7.920;2022-09-29T09:17:58;95737.75;;;13.69;100.00
60874;BME280;46715;40.642;-7.920;2022-09-29T09:20:13;95732.59;;;13.86;100.00
60874;BME280;46715;40.642;-7.920;2022-09-29T09:24:58;95743.53;;;14.20;100.00
60874;BME280;46715;40.642;-7.920;2022-09-29T09:26:59;95742.38;;;14.35;100.00
60874;BME280;46715;40.642;-7.920;2022-09-29T09:31:27;95746.69;;;14.79;100.00
60874;BME280;46715;40.642;-7.920;2022-09-29T09:33:38;95744.25;;;15.00;100.00
60874;BME280;46715;40.642;-7.920;2022-09-29T09:35:46;95735.00;;;15.21;100.00
60874;BME280;46715;40.642;-7.920;2022-09-29T09:37:54;95740.88;;;15.26;100.00
60874;BME280;46715;40.642;-7.920;2022-09-29T09:40:19;95731.25;;;15.39;100.00
60874;BME280;46715;40.642;-7.920;2022-09-29T09:42:25;95737.28;;;15.31;100.00
60874;BME280;46715;40.642;-7.920;2022-09-29T09:44:33;95740.88;;;15.26;100.00
60874;BME280;46715;40.642;-7.920;2022-09-29T09:46:36;95738.53;;;15.33;100.00
60874;BME280;46715;40.642;-7.920;2022-09-29T09:49:12;95724.19;;;15.40;100.00
60874;BME280;46715;40.642;-7.920;2022-09-29T09:51:32;95709.72;;;15.81;100.00
60874;BME280;46715;40.642;-7.920;2022-09-29T09:53:40;95707.88;;;16.29;100.00
60874;BME280;46715;40.642;-7.920;2022-09-29T09:55:46;95710.78;;;16.36;100.00
60874;BME280;46715;40.642;-7.920;2022-09-29T10:02:24;95718.53;;;16.92;100.00
60874;BME280;46715;40.642;-7.920;2022-09-29T10:04:27;95723.09;;;17.04;100.00
60874;BME280;46715;40.642;-7.920;2022-09-29T10:06:28;95719.47;;;17.09;100.00
60874;BME280;46715;40.642;-7.920;2022-09-29T10:08:32;95723.28;;;17.20;100.00
60874;BME280;46715;40.642;-7.920;2022-09-29T10:10:40;95729.31;;;17.20;100.00
60874;BME280;46715;40.642;-7.920;2022-09-29T10:12:42;95729.75;;;17.01;100.00
60874;BME280;46715;40.642;-7.920;2022-09-29T10:14:53;95723.00;;;17.13;100.00
60874;BME280;46715;40.642;-7.920;2022-09-29T10:17:01;95732.22;;;17.07;100.00
60874;BME280;46715;40.642;-7.920;2022-09-29T10:19:05;95731.44;;;17.06;100.00
60874;BME280;46715;40.642;-7.920;2022-09-29T10:21:20;95740.28;;;17.01;100.00
60874;BME280;46715;40.642;-7.920;2022-09-29T10:23:32;95739.47;;;17.10;100.00
60874;BME280;46715;40.642;-7.920;2022-09-29T10:25:36;95740.25;;;17.10;100.00
60874;BME280;46715;40.642;-7.920;2022-09-29T10:27:42;95745.81;;;17.09;100.00
60874;BME280;46715;40.642;-7.920;2022-09-29T10:29:45;95751.38;;;17.16;100.00
60874;BME280;46715;40.642;-7.920;2022-09-29T10:32:15;95750.25;;;17.17;100.00
60874;BME280;46715;40.642;-7.920;2022-09-29T10:34:22;95752.56;;;17.18;100.00
60874;BME280;46715;40.642;-7.920;2022-09-29T10:36:49;95749.75;;;17.24;100.00
60874;BME280;46715;40.642;-7.920;2022-09-29T10:38:52;95751.69;;;17.35;100.00
60874;BME280;46715;40.642;-7.920;2022-09-29T10:40:59;95749.09;;;17.48;100.00
60874;BME280;46715;40.642;-7.920;2022-09-29T10:43:24;95751.28;;;17.79;100.00
60874;BME280;46715;40.642;-7.920;2022-09-29T10:45:27;95738.94;;;17.71;96.99
60874;BME280;46715;40.642;-7.920;2022-09-29T10:47:29;95736.00;;;17.85;97.48
60874;BME280;46715;40.642;-7.920;2022-09-29T10:49:30;95741.59;;;17.83;100.00
60874;BME280;46715;40.642;-7.920;2022-09-29T10:51:31;95742.00;;;17.94;99.24
60874;BME280;46715;40.642;-7.920;2022-09-29T10:53:36;95749.19;;;18.06;97.93
60874;BME280;46715;40.642;-7.920;2022-09-29T10:55:47;95747.44;;;18.10;97.85
60874;BME280;46715;40.642;-7.920;2022-09-29T10:57:50;95750.19;;;18.51;93.21
60874;BME280;46715;40.642;-7.920;2022-09-29T10:59:52;95751.06;;;18.80;91.58
60874;BME280;46715;40.642;-7.920;2022-09-29T11:01:57;95747.47;;;19.53;88.76
60874;BME280;46715;40.642;-7.920;2022-09-29T11:04:02;95753.63;;;19.86;82.65
60874;BME280;46715;40.642;-7.920;2022-09-29T11:06:09;95755.63;;;19.76;81.48
60874;BME280;46715;40.642;-7.920;2022-09-29T11:08:32;95734.38;;;19.73;82.33
60874;BME280;46715;40.642;-7.920;2022-09-29T11:10:35;95729.91;;;19.89;84.05
60874;BME280;46715;40.642;-7.920;2022-09-29T11:12:36;95728.41;;;19.76;85.87
60874;BME280;46715;40.642;-7.920;2022-09-29T11:14:40;95714.25;;;19.40;79.49
60874;BME280;46715;40.642;-7.920;2022-09-29T11:16:52;95715.28;;;18.95;83.88
60874;BME280;46715;40.642;-7.920;2022-09-29T11:18:58;95713.75;;;18.94;81.92
60874;BME280;46715;40.642;-7.920;2022-09-29T11:23:32;95725.19;;;18.73;80.86
60874;BME280;46715;40.642;-7.920;2022-09-29T11:28:23;95703.56;;;18.43;81.33
60874;BME280;46715;40.642;-7.920;2022-09-29T11:33:12;95723.56;;;18.19;84.98
60874;BME280;46715;40.642;-7.920;2022-09-29T11:35:30;95726.75;;;18.25;86.14
60874;BME280;46715;40.642;-7.920;2022-09-29T11:42:21;95726.75;;;18.37;85.70
60874;BME280;46715;40.642;-7.920;2022-09-29T11:49:53;95713.91;;;19.13;80.04
60874;BME280;46715;40.642;-7.920;2022-09-29T11:56:29;95690.78;;;18.32;80.74
60874;BME280;46715;40.642;-7.920;2022-09-29T11:58:41;95681.91;;;18.37;80.17